createdAt,value
2023-02-14T00:00:13.247Z,9.90
2023-02-14T00:02:42.359Z,9.90
2023-02-14T00:05:11.743Z,9.90
2023-02-14T00:07:40.933Z,9.90
2023-02-14T00:10:10.690Z,9.90
2023-02-14T00:12:39.801Z,9.90
2023-02-14T00:15:33.480Z,9.90
2023-02-14T00:18:03.908Z,9.90
2023-02-14T00:20:33.037Z,9.90
2023-02-14T00:23:02.189Z,9.90
2023-02-14T00:25:31.288Z,9.90
2023-02-14T00:28:00.328Z,9.90
2023-02-14T00:30:31.105Z,9.80
2023-02-14T00:33:00.636Z,9.80
2023-02-14T00:35:31.336Z,9.80
2023-02-14T00:38:00.440Z,9.70
2023-02-14T00:40:30.173Z,9.70
2023-02-14T00:42:59.523Z,9.70
2023-02-14T00:45:28.651Z,9.70
2023-02-14T00:47:57.863Z,9.70
2023-02-14T00:50:26.963Z,9.70
2023-02-14T00:52:57.467Z,9.70
2023-02-14T00:55:26.603Z,9.70
2023-02-14T00:57:55.742Z,9.70
2023-02-14T01:00:25.459Z,9.70
2023-02-14T01:02:57.824Z,9.80
2023-02-14T01:05:27.229Z,9.80
2023-02-14T01:07:57.722Z,9.80
2023-02-14T01:10:27.116Z,9.80
2023-02-14T01:12:56.405Z,9.80
2023-02-14T01:15:25.577Z,9.80
2023-02-14T01:17:54.966Z,9.80
2023-02-14T01:20:24.230Z,9.80
2023-02-14T01:22:54.758Z,9.90
2023-02-14T01:25:25.709Z,9.90
2023-02-14T01:27:54.926Z,9.90
2023-02-14T01:30:24.165Z,9.90
2023-02-14T01:32:53.669Z,9.90
2023-02-14T01:35:23.535Z,9.90
2023-02-14T01:37:53.350Z,10.00
2023-02-14T01:40:22.685Z,10.00
2023-02-14T01:42:53.234Z,10.00
2023-02-14T01:45:26.903Z,10.00
2023-02-14T01:47:58.797Z,10.00
2023-02-14T01:50:33.884Z,10.00
2023-02-14T01:53:05.573Z,10.00
2023-02-14T01:55:38.621Z,10.00
2023-02-14T01:58:13.106Z,10.00
2023-02-14T02:00:58.713Z,10.00
2023-02-14T02:03:32.185Z,10.00
2023-02-14T02:06:09.875Z,10.00
2023-02-14T02:08:43.255Z,10.10
2023-02-14T02:11:12.349Z,10.10
2023-02-14T02:13:42.998Z,10.10
2023-02-14T02:16:17.735Z,10.10
2023-02-14T02:18:59.568Z,10.10
2023-02-14T02:22:05.724Z,10.10
2023-02-14T02:24:40.306Z,10.10
2023-02-14T02:27:33.220Z,10.10
2023-02-14T02:30:37.822Z,10.10
2023-02-14T02:33:50.097Z,10.20
2023-02-14T02:36:49.309Z,10.20
2023-02-14T02:39:31.251Z,10.10
2023-02-14T02:42:08.079Z,10.20
2023-02-14T02:44:46.753Z,10.20
2023-02-14T02:47:22.584Z,10.20
2023-02-14T02:50:17.648Z,10.20
2023-02-14T02:53:06.416Z,10.20
2023-02-14T02:56:16.552Z,10.20
2023-02-14T02:58:53.129Z,10.20
2023-02-14T03:01:28.273Z,10.30
2023-02-14T03:04:19.419Z,10.30
2023-02-14T03:06:49.436Z,10.30
2023-02-14T03:09:54.083Z,10.30
2023-02-14T03:13:03.859Z,10.30
2023-02-14T03:15:44.522Z,10.30
2023-02-14T03:18:46.351Z,10.30
2023-02-14T03:21:23.000Z,10.40
2023-02-14T03:23:57.976Z,10.40
2023-02-14T03:26:36.323Z,10.30
2023-02-14T03:29:14.171Z,10.30
2023-02-14T03:31:52.058Z,10.30
2023-02-14T03:34:29.633Z,10.30
2023-02-14T03:37:04.566Z,10.30
2023-02-14T03:39:40.998Z,10.30
2023-02-14T03:42:17.904Z,10.30
2023-02-14T03:44:49.820Z,10.30
2023-02-14T03:47:22.124Z,10.30
2023-02-14T03:49:58.063Z,10.30
2023-02-14T03:52:28.811Z,10.30
2023-02-14T03:55:00.758Z,10.30
2023-02-14T03:57:36.523Z,10.30
2023-02-14T04:00:07.123Z,10.40
2023-02-14T04:02:46.682Z,10.30
2023-02-14T04:05:19.802Z,10.40
2023-02-14T04:07:51.631Z,10.40
2023-02-14T04:10:21.885Z,10.40
2023-02-14T04:12:52.663Z,10.40
2023-02-14T04:15:21.930Z,10.30
2023-02-14T04:18:08.584Z,10.40
2023-02-14T04:20:38.259Z,10.30
2023-02-14T04:23:07.416Z,10.30
2023-02-14T04:25:36.504Z,10.40
2023-02-14T04:28:07.180Z,10.40
2023-02-14T04:30:36.275Z,10.40
2023-02-14T04:33:05.940Z,10.40
2023-02-14T04:35:35.397Z,10.40
2023-02-14T04:38:05.852Z,10.40
2023-02-14T04:40:34.938Z,10.40
2023-02-14T04:43:04.704Z,10.40
2023-02-14T04:45:35.511Z,10.40
2023-02-14T04:48:04.784Z,10.40
2023-02-14T04:50:33.878Z,10.40
2023-02-14T04:53:03.071Z,10.40
2023-02-14T04:55:32.492Z,10.40
2023-02-14T04:58:01.530Z,10.40
2023-02-14T05:00:30.676Z,10.30
2023-02-14T05:03:01.243Z,10.40
2023-02-14T05:05:30.365Z,10.40
2023-02-14T05:07:59.400Z,10.40
2023-02-14T05:10:29.336Z,10.40
2023-02-14T05:12:58.399Z,10.50
2023-02-14T05:15:27.440Z,10.50
2023-02-14T05:17:59.902Z,10.50
2023-02-14T05:20:30.756Z,10.50
2023-02-14T05:23:03.324Z,10.50
2023-02-14T05:25:32.719Z,10.50
2023-02-14T05:28:01.835Z,10.50
2023-02-14T05:30:31.096Z,10.50
2023-02-14T05:33:00.435Z,10.60
2023-02-14T05:35:31.055Z,10.60
2023-02-14T05:38:00.312Z,10.60
2023-02-14T05:40:29.908Z,10.60
2023-02-14T05:42:59.142Z,10.70
2023-02-14T05:45:28.235Z,10.70
2023-02-14T05:47:57.640Z,10.70
2023-02-14T05:50:26.779Z,10.70
2023-02-14T05:52:58.362Z,10.70
2023-02-14T05:55:27.494Z,10.70
2023-02-14T05:57:56.661Z,10.80
2023-02-14T06:00:26.296Z,10.70
2023-02-14T06:02:55.398Z,10.70
2023-02-14T06:05:24.521Z,10.80
2023-02-14T06:07:53.777Z,10.80
2023-02-14T06:10:26.696Z,10.80
2023-02-14T06:12:56.464Z,10.80
2023-02-14T06:15:25.926Z,10.80
2023-02-14T06:17:56.335Z,10.80
2023-02-14T06:20:26.029Z,10.80
2023-02-14T06:22:55.895Z,10.80
2023-02-14T06:25:26.669Z,10.70
2023-02-14T06:27:58.201Z,10.80
2023-02-14T06:30:28.045Z,10.80
2023-02-14T06:32:57.545Z,10.80
2023-02-14T06:35:26.673Z,10.80
2023-02-14T06:37:55.827Z,10.80
2023-02-14T06:40:26.347Z,10.80
2023-02-14T06:42:55.523Z,10.80
2023-02-14T06:45:24.573Z,10.80
2023-02-14T06:47:53.667Z,10.80
2023-02-14T06:50:22.928Z,10.90
2023-02-14T06:52:52.050Z,10.90
2023-02-14T06:55:21.243Z,10.90
2023-02-14T06:57:51.834Z,10.90
2023-02-14T07:00:22.244Z,10.90
2023-02-14T07:02:51.741Z,10.90
2023-02-14T07:05:22.293Z,10.90
2023-02-14T07:07:51.844Z,10.90
2023-02-14T07:10:21.637Z,10.90
2023-02-14T07:12:52.882Z,10.90
2023-02-14T07:15:21.863Z,10.90
2023-02-14T07:17:50.975Z,11.00
2023-02-14T07:20:20.639Z,11.00
2023-02-14T07:22:49.853Z,11.00
2023-02-14T07:25:19.294Z,11.00
2023-02-14T07:27:49.014Z,11.00
2023-02-14T07:30:20.033Z,11.10
2023-02-14T07:32:49.253Z,11.00
2023-02-14T07:35:18.427Z,11.10
2023-02-14T07:37:47.706Z,11.10
2023-02-14T07:40:17.078Z,11.10
2023-02-14T07:42:47.076Z,11.10
2023-02-14T07:45:21.771Z,11.10
2023-02-14T07:47:54.859Z,11.10
2023-02-14T07:50:24.808Z,11.10
2023-02-14T07:52:55.195Z,11.20
2023-02-14T07:55:25.228Z,11.10
2023-02-14T07:57:54.316Z,11.20
2023-02-14T08:00:24.123Z,11.20
2023-02-14T08:02:56.184Z,11.20
2023-02-14T08:05:25.424Z,11.20
2023-02-14T08:07:54.567Z,11.20
2023-02-14T08:10:23.684Z,11.20
2023-02-14T08:13:02.104Z,11.20
2023-02-14T08:15:51.023Z,11.20
2023-02-14T08:18:23.335Z,11.20
2023-02-14T08:20:53.039Z,11.20
2023-02-14T08:23:22.539Z,11.20
2023-02-14T08:25:53.204Z,11.20
2023-02-14T08:28:22.800Z,11.30
2023-02-14T08:30:53.406Z,11.30
2023-02-14T08:33:24.706Z,11.30
2023-02-14T08:35:54.565Z,11.30
2023-02-14T08:38:24.191Z,11.30
2023-02-14T08:40:53.736Z,11.30
2023-02-14T08:43:23.393Z,11.30
2023-02-14T08:45:54.586Z,11.30
2023-02-14T08:48:27.019Z,11.40
2023-02-14T08:50:56.361Z,11.40
2023-02-14T08:53:26.346Z,11.40
2023-02-14T08:55:55.978Z,11.50
2023-02-14T08:58:25.572Z,11.40
2023-02-14T09:00:55.863Z,11.50
2023-02-14T09:03:26.670Z,11.50
2023-02-14T09:05:56.593Z,11.50
2023-02-14T09:08:25.833Z,11.50
2023-02-14T09:10:55.005Z,11.60
2023-02-14T09:13:24.734Z,11.60
2023-02-14T09:15:53.853Z,11.60
2023-02-14T09:18:23.182Z,11.60
2023-02-14T09:20:55.018Z,11.60
2023-02-14T09:23:24.318Z,11.60
2023-02-14T09:25:53.651Z,11.70
2023-02-14T09:28:24.796Z,11.60
2023-02-14T09:30:54.649Z,11.70
2023-02-14T09:33:24.460Z,11.70
2023-02-14T09:35:55.663Z,11.70
2023-02-14T09:38:24.928Z,11.70
2023-02-14T09:40:54.426Z,11.70
2023-02-14T09:43:32.428Z,11.70
2023-02-14T09:46:03.708Z,11.70
2023-02-14T09:48:34.793Z,11.70
2023-02-14T09:51:10.050Z,11.80
2023-02-14T09:53:45.504Z,11.80
2023-02-14T09:56:22.227Z,11.80
2023-02-14T09:58:56.104Z,11.80
2023-02-14T10:01:29.785Z,11.80
2023-02-14T10:04:22.699Z,11.80
2023-02-14T10:06:59.919Z,11.70
2023-02-14T10:09:51.352Z,11.70
2023-02-14T10:12:25.447Z,11.70
2023-02-14T10:15:00.304Z,11.70
2023-02-14T10:17:40.558Z,11.70
2023-02-14T10:20:22.070Z,11.70
2023-02-14T10:23:01.784Z,11.80
2023-02-14T10:25:38.384Z,11.80
2023-02-14T10:28:12.632Z,11.80
2023-02-14T10:30:52.894Z,11.90
2023-02-14T10:33:23.729Z,11.90
2023-02-14T10:35:58.515Z,11.90
2023-02-14T10:38:40.912Z,11.90
2023-02-14T10:41:25.957Z,11.90
2023-02-14T10:44:01.498Z,11.90
2023-02-14T10:46:40.954Z,12.00
2023-02-14T10:49:28.784Z,12.00
2023-02-14T10:52:04.351Z,12.00
2023-02-14T10:54:40.059Z,12.00
2023-02-14T10:57:16.027Z,12.10
2023-02-14T10:59:53.434Z,12.10
2023-02-14T11:02:27.072Z,12.20
2023-02-14T11:05:00.341Z,12.20
2023-02-14T11:07:29.865Z,12.20
2023-02-14T11:10:03.490Z,12.20
2023-02-14T11:12:39.113Z,12.30
2023-02-14T11:15:24.367Z,12.30
2023-02-14T11:18:11.381Z,12.30
2023-02-14T11:20:40.751Z,12.30
2023-02-14T11:23:21.183Z,12.30
2023-02-14T11:25:56.788Z,12.30
2023-02-14T11:28:25.975Z,12.30
2023-02-14T11:30:55.806Z,12.30
2023-02-14T11:33:38.561Z,12.40
2023-02-14T11:36:13.389Z,12.40
2023-02-14T11:38:43.046Z,12.40
2023-02-14T11:41:26.355Z,12.50
2023-02-14T11:44:15.687Z,12.60
2023-02-14T11:46:53.128Z,12.80
2023-02-14T11:49:29.673Z,12.90
2023-02-14T11:52:01.003Z,13.00
2023-02-14T11:54:31.888Z,13.10
2023-02-14T11:57:10.570Z,13.20
2023-02-14T11:59:43.643Z,13.30
2023-02-14T12:02:24.491Z,13.40
2023-02-14T12:04:57.323Z,13.50
2023-02-14T12:07:32.974Z,13.60
2023-02-14T12:10:27.537Z,13.70
2023-02-14T12:13:01.886Z,13.80
2023-02-14T12:15:38.142Z,13.80
2023-02-14T12:18:45.221Z,13.90
2023-02-14T12:21:35.072Z,13.90
2023-02-14T12:24:14.055Z,14.00
2023-02-14T12:26:48.109Z,14.00
2023-02-14T12:29:26.364Z,14.00
2023-02-14T12:32:00.397Z,14.00
2023-02-14T12:34:29.952Z,14.10
2023-02-14T12:37:21.137Z,14.00
2023-02-14T12:40:02.679Z,14.10
2023-02-14T12:42:54.717Z,14.10
2023-02-14T12:45:34.702Z,14.10
2023-02-14T12:48:17.532Z,14.10
2023-02-14T12:50:51.348Z,14.00
2023-02-14T12:53:51.007Z,13.90
2023-02-14T12:56:29.734Z,13.90
2023-02-14T12:59:10.834Z,13.80
2023-02-14T13:02:18.865Z,13.80
2023-02-14T13:04:58.629Z,13.70
2023-02-14T13:07:48.721Z,13.70
2023-02-14T13:10:31.324Z,13.80
2023-02-14T13:13:07.902Z,13.80
2023-02-14T13:15:48.285Z,13.90
2023-02-14T13:18:25.892Z,13.90
2023-02-14T13:20:56.953Z,13.90
2023-02-14T13:23:31.657Z,13.90
2023-02-14T13:26:05.529Z,13.90
2023-02-14T13:28:37.569Z,13.90
2023-02-14T13:31:06.940Z,14.00
2023-02-14T13:33:40.546Z,14.00
2023-02-14T13:36:12.388Z,14.10
2023-02-14T13:38:46.766Z,14.10
2023-02-14T13:41:17.641Z,14.10
2023-02-14T13:43:48.513Z,14.20
2023-02-14T13:46:21.185Z,14.20
2023-02-14T13:49:18.883Z,14.30
2023-02-14T13:51:49.611Z,14.30
2023-02-14T13:54:29.454Z,14.30
2023-02-14T13:56:59.799Z,14.30
2023-02-14T13:59:31.737Z,14.30
2023-02-14T14:02:32.941Z,14.30
2023-02-14T14:05:42.981Z,14.20
2023-02-14T14:08:33.906Z,14.20
2023-02-14T14:11:05.153Z,14.20
2023-02-14T14:14:01.708Z,14.20
2023-02-14T14:16:33.467Z,14.10
2023-02-14T14:19:05.781Z,14.10
2023-02-14T14:21:39.439Z,14.10
2023-02-14T14:24:23.545Z,14.10
2023-02-14T14:26:59.161Z,14.10
2023-02-14T14:29:31.841Z,14.10
2023-02-14T14:32:01.217Z,14.10
2023-02-14T14:34:30.537Z,14.00
2023-02-14T14:37:06.076Z,14.00
2023-02-14T14:39:39.953Z,14.00
2023-02-14T14:42:13.900Z,14.00
2023-02-14T14:44:49.812Z,14.00
2023-02-14T14:47:24.475Z,14.00
2023-02-14T14:49:56.012Z,14.00
2023-02-14T14:52:33.196Z,14.10
2023-02-14T14:55:04.357Z,14.10
2023-02-14T14:57:33.597Z,14.10
2023-02-14T15:00:27.272Z,14.00
2023-02-14T15:03:02.077Z,14.00
2023-02-14T15:05:34.013Z,14.00
2023-02-14T15:08:23.204Z,14.00
2023-02-14T15:10:55.876Z,14.00
2023-02-14T15:13:51.027Z,14.00
2023-02-14T15:16:23.351Z,13.90
2023-02-14T15:18:55.628Z,13.90
2023-02-14T15:21:25.015Z,13.90
2023-02-14T15:23:56.073Z,13.90
2023-02-14T15:26:29.687Z,13.90
2023-02-14T15:29:02.424Z,13.90
2023-02-14T15:31:34.647Z,13.90
2023-02-14T15:34:05.122Z,14.00
2023-02-14T15:36:36.128Z,14.00
2023-02-14T15:39:09.635Z,14.10
2023-02-14T15:41:44.841Z,14.10
2023-02-14T15:44:21.149Z,14.10
2023-02-14T15:46:55.349Z,14.10
2023-02-14T15:49:31.255Z,14.10
2023-02-14T15:52:03.865Z,14.10
2023-02-14T15:54:39.066Z,14.10
2023-02-14T15:57:17.775Z,14.10
2023-02-14T15:59:47.425Z,14.10
2023-02-14T16:02:28.277Z,14.10
2023-02-14T16:05:05.361Z,14.10
2023-02-14T16:07:34.495Z,14.10
2023-02-14T16:10:24.072Z,14.10
2023-02-14T16:12:59.313Z,14.00
2023-02-14T16:15:30.494Z,14.00
2023-02-14T16:17:59.936Z,13.90
2023-02-14T16:20:47.060Z,13.80
2023-02-14T16:23:25.557Z,13.80
2023-02-14T16:25:57.498Z,13.70
2023-02-14T16:28:31.088Z,13.70
2023-02-14T16:31:02.921Z,13.60
2023-02-14T16:33:35.230Z,13.60
2023-02-14T16:36:09.408Z,13.50
2023-02-14T16:38:43.870Z,13.50
2023-02-14T16:41:22.315Z,13.50
2023-02-14T16:43:51.875Z,13.40
2023-02-14T16:46:22.971Z,13.40
2023-02-14T16:48:52.980Z,13.30
2023-02-14T16:51:24.517Z,13.20
2023-02-14T16:53:54.925Z,13.20
2023-02-14T16:56:29.372Z,13.10
2023-02-14T16:58:58.857Z,13.10
2023-02-14T17:01:27.977Z,13.00
2023-02-14T17:03:57.105Z,13.00
2023-02-14T17:06:28.654Z,12.90
2023-02-14T17:08:59.785Z,12.90
2023-02-14T17:11:33.619Z,12.80
2023-02-14T17:14:02.717Z,12.80
2023-02-14T17:16:32.830Z,12.70
2023-02-14T17:19:04.170Z,12.70
2023-02-14T17:21:34.421Z,12.70
2023-02-14T17:24:03.790Z,12.60
2023-02-14T17:26:34.178Z,12.60
2023-02-14T17:29:03.322Z,12.50
2023-02-14T17:31:32.717Z,12.50
2023-02-14T17:34:01.928Z,12.50
2023-02-14T17:36:32.621Z,12.50
2023-02-14T17:39:03.371Z,12.40
2023-02-14T17:41:33.935Z,12.40
2023-02-14T17:44:03.048Z,12.40
2023-02-14T17:46:32.932Z,12.40
2023-02-14T17:49:02.726Z,12.40
2023-02-14T17:51:31.733Z,12.40
2023-02-14T17:54:00.998Z,12.30
2023-02-14T17:56:30.220Z,12.30
2023-02-14T17:59:00.999Z,12.30
2023-02-14T18:01:34.530Z,12.30
2023-02-14T18:04:05.730Z,12.20
2023-02-14T18:06:34.885Z,12.20
2023-02-14T18:09:06.869Z,12.20
2023-02-14T18:11:35.977Z,12.20
2023-02-14T18:14:06.386Z,12.10
2023-02-14T18:16:38.074Z,12.10
2023-02-14T18:19:10.107Z,12.10
2023-02-14T18:21:40.288Z,12.10
2023-02-14T18:24:10.407Z,12.00
2023-02-14T18:26:41.106Z,12.00
2023-02-14T18:29:12.771Z,12.00
2023-02-14T18:31:44.202Z,12.00
2023-02-14T18:34:13.525Z,11.90
2023-02-14T18:36:42.979Z,11.90
2023-02-14T18:39:12.348Z,11.90
2023-02-14T18:41:41.627Z,11.80
2023-02-14T18:44:13.711Z,11.80
2023-02-14T18:46:42.827Z,11.70
2023-02-14T18:49:13.698Z,11.70
2023-02-14T18:51:43.749Z,11.70
2023-02-14T18:54:12.772Z,11.70
2023-02-14T18:56:41.836Z,11.70
2023-02-14T18:59:19.073Z,11.70
2023-02-14T19:01:49.244Z,11.60
2023-02-14T19:04:18.419Z,11.70
2023-02-14T19:06:47.500Z,11.60
2023-02-14T19:09:18.738Z,11.60
2023-02-14T19:11:47.894Z,11.60
2023-02-14T19:14:19.790Z,11.60
2023-02-14T19:16:51.160Z,11.60
2023-02-14T19:19:20.688Z,11.60
2023-02-14T19:21:52.144Z,11.60
2023-02-14T19:24:26.354Z,11.60
2023-02-14T19:26:57.030Z,11.60
2023-02-14T19:29:28.650Z,11.70
2023-02-14T19:32:06.899Z,11.70
2023-02-14T19:34:38.494Z,11.70
2023-02-14T19:37:07.660Z,11.70
2023-02-14T19:39:36.691Z,11.70
2023-02-14T19:42:06.370Z,11.70
2023-02-14T19:44:36.874Z,11.70
2023-02-14T19:47:19.233Z,11.70
2023-02-14T19:50:25.623Z,11.70
2023-02-14T19:52:55.773Z,11.70
2023-02-14T19:55:25.054Z,11.70
2023-02-14T19:57:54.277Z,11.70
2023-02-14T20:00:25.396Z,11.70
2023-02-14T20:02:54.501Z,11.70
2023-02-14T20:05:37.001Z,11.70
2023-02-14T20:08:33.673Z,11.60
2023-02-14T20:11:09.752Z,11.60
2023-02-14T20:13:42.977Z,11.60
2023-02-14T20:16:30.197Z,11.60
2023-02-14T20:19:03.169Z,11.50
2023-02-14T20:21:34.639Z,11.50
2023-02-14T20:24:15.292Z,11.50
2023-02-14T20:26:44.481Z,11.50
2023-02-14T20:29:13.608Z,11.50
2023-02-14T20:31:46.021Z,11.50
2023-02-14T20:34:15.609Z,11.50
2023-02-14T20:36:45.534Z,11.40
2023-02-14T20:39:14.780Z,11.50
2023-02-14T20:41:49.870Z,11.50
2023-02-14T20:44:21.770Z,11.50
2023-02-14T20:46:54.204Z,11.50
2023-02-14T20:49:25.431Z,11.50
2023-02-14T20:51:58.255Z,11.50
2023-02-14T20:54:29.212Z,11.50
2023-02-14T20:56:59.049Z,11.40
2023-02-14T20:59:28.995Z,11.40
2023-02-14T21:02:00.421Z,11.40
2023-02-14T21:04:32.059Z,11.40
2023-02-14T21:07:05.139Z,11.40
2023-02-14T21:09:34.579Z,11.40
2023-02-14T21:12:03.995Z,11.40
2023-02-14T21:14:33.221Z,11.40
2023-02-14T21:17:05.553Z,11.40
2023-02-14T21:19:34.661Z,11.40
2023-02-14T21:22:04.348Z,11.40
2023-02-14T21:24:33.654Z,11.30
2023-02-14T21:27:02.728Z,11.30
2023-02-14T21:29:31.822Z,11.40
2023-02-14T21:32:03.400Z,11.40
2023-02-14T21:34:35.435Z,11.30
2023-02-14T21:37:04.603Z,11.30
2023-02-14T21:39:35.825Z,11.30
2023-02-14T21:42:04.953Z,11.30
2023-02-14T21:44:51.099Z,11.20
2023-02-14T21:47:20.317Z,11.20
2023-02-14T21:50:10.761Z,11.20
2023-02-14T21:52:39.921Z,11.20
2023-02-14T21:55:09.650Z,11.20
2023-02-14T21:57:38.975Z,11.20
2023-02-14T22:00:09.327Z,11.20
2023-02-14T22:02:41.593Z,11.20
2023-02-14T22:05:12.178Z,11.20
2023-02-14T22:07:41.297Z,11.10
2023-02-14T22:10:12.962Z,11.10
2023-02-14T22:12:42.071Z,11.10
2023-02-14T22:15:11.394Z,11.20
2023-02-14T22:17:40.655Z,11.10
2023-02-14T22:20:12.189Z,11.10
2023-02-14T22:22:41.250Z,11.20
2023-02-14T22:25:10.371Z,11.20
2023-02-14T22:27:40.671Z,11.10
2023-02-14T22:30:10.514Z,11.20
2023-02-14T22:32:43.328Z,11.20
2023-02-14T22:35:13.774Z,11.10
2023-02-14T22:37:43.222Z,11.10
2023-02-14T22:40:12.789Z,11.10
2023-02-14T22:42:41.958Z,11.10
2023-02-14T22:45:11.470Z,11.10
2023-02-14T22:47:44.932Z,11.10
2023-02-14T22:50:15.532Z,11.10
2023-02-14T22:52:44.857Z,11.10
2023-02-14T22:55:13.976Z,11.10
2023-02-14T22:57:43.174Z,11.10
2023-02-14T23:00:13.090Z,11.10
2023-02-14T23:02:42.416Z,11.10
2023-02-14T23:05:11.546Z,11.10
2023-02-14T23:07:44.945Z,11.10
2023-02-14T23:10:14.130Z,11.10
2023-02-14T23:13:00.943Z,11.10
2023-02-14T23:15:47.815Z,11.10
2023-02-14T23:18:34.370Z,11.00
2023-02-14T23:21:20.924Z,11.10
2023-02-14T23:23:51.495Z,11.00
2023-02-14T23:26:21.032Z,11.00
2023-02-14T23:28:50.211Z,11.00
2023-02-14T23:31:19.866Z,11.00
2023-02-14T23:33:52.172Z,11.00
2023-02-14T23:36:21.309Z,11.00
2023-02-14T23:38:51.968Z,11.00
2023-02-14T23:41:38.533Z,11.00
2023-02-14T23:44:08.244Z,11.00
2023-02-14T23:46:37.390Z,11.00
2023-02-14T23:49:06.877Z,11.00
2023-02-14T23:51:36.550Z,11.00
2023-02-14T23:54:07.434Z,11.00
2023-02-14T23:56:37.401Z,11.00
2023-02-14T23:59:07.227Z,10.90
